sensor_id;sensor_type;location;lat;lon;timestamp;pressure;altitude;pressure_sealevel;temperature;humidity
6500;BME280;3283;52.330;9.772;2023-03-20T05:03:12;100986.66;;;9.13;100.00
6500;BME280;3283;52.330;9.772;2023-03-20T05:05:38;56484.91;;;-143.80;100.00
6500;BME280;3283;52.330;9.772;2023-03-20T05:08:04;100983.06;;;9.55;100.00
6500;BME280;3283;52.330;9.772;2023-03-20T05:10:30;56484.91;;;-143.80;100.00
6500;BME280;3283;52.330;9.772;2023-03-20T05:12:56;100983.06;;;9.55;100.00
6500;BME280;3283;52.330;9.772;2023-03-20T05:15:21;100982.97;;;9.88;100.00
6500;BME280;3283;52.330;9.772;2023-03-20T05:17:47;100982.97;;;9.88;100.00
6500;BME280;3283;52.330;9.772;2023-03-20T05:20:13;100981.97;;;10.11;100.00
6500;BME280;3283;52.330;9.772;2023-03-20T05:22:39;56484.91;;;-143.80;100.00
6500;BME280;3283;52.330;9.772;2023-03-20T05:25:05;56484.91;;;-143.80;100.00
6500;BME280;3283;52.330;9.772;2023-03-20T05:27:31;56484.91;;;-143.80;100.00
6500;BME280;3283;52.330;9.772;2023-03-20T05:29:56;56484.91;;;-143.80;100.00
6500;BME280;3283;52.330;9.772;2023-03-20T05:32:22;100980.06;;;10.40;100.00
6500;BME280;3283;52.330;9.772;2023-03-20T05:34:47;56484.91;;;-143.80;100.00
6500;BME280;3283;52.330;9.772;2023-03-20T05:37:13;100985.41;;;10.31;100.00
6500;BME280;3283;52.330;9.772;2023-03-20T05:39:38;56484.91;;;-143.80;100.00
6500;BME280;3283;52.330;9.772;2023-03-20T05:42:04;56484.91;;;-143.80;100.00
6500;BME280;3283;52.330;9.772;2023-03-20T05:44:29;56484.91;;;-143.80;100.00
6500;BME280;3283;52.330;9.772;2023-03-20T05:46:55;56484.91;;;-143.80;100.00
6500;BME280;3283;52.330;9.772;2023-03-20T05:49:20;56484.91;;;-143.80;100.00
6500;BME280;3283;52.330;9.772;2023-03-20T05:51:46;56484.91;;;-143.80;100.00
6500;BME280;3283;52.330;9.772;2023-03-20T05:54:11;101010.56;;;10.70;100.00
6500;BME280;3283;52.330;9.772;2023-03-20T05:56:36;56484.91;;;-143.80;100.00
6500;BME280;3283;52.330;9.772;2023-03-20T05:59:02;56484.91;;;-143.80;100.00
6500;BME280;3283;52.330;9.772;2023-03-20T06:01:27;56484.91;;;-143.80;100.00
6500;BME280;3283;52.330;9.772;2023-03-20T06:03:53;56484.91;;;-143.80;100.00
6500;BME280;3283;52.330;9.772;2023-03-20T06:06:18;100999.13;;;10.75;100.00
6500;BME280;3283;52.330;9.772;2023-03-20T06:08:43;56484.91;;;-143.80;100.00
6500;BME280;3283;52.330;9.772;2023-03-20T06:11:10;101005.25;;;10.78;100.00
6500;BME280;3283;52.330;9.772;2023-03-20T06:13:36;56484.91;;;-143.80;100.00
6500;BME280;3283;52.330;9.772;2023-03-20T06:16:01;56484.91;;;-143.80;100.00
6500;BME280;3283;52.330;9.772;2023-03-20T06:18:27;56484.91;;;-143.80;100.00
6500;BME280;3283;52.330;9.772;2023-03-20T06:20:53;101000.00;;;10.77;100.00
6500;BME280;3283;52.330;9.772;2023-03-20T06:23:19;56484.91;;;-143.80;100.00
6500;BME280;3283;52.330;9.772;2023-03-20T06:25:45;101007.94;;;10.73;100.00
6500;BME280;3283;52.330;9.772;2023-03-20T06:28:10;56484.91;;;-143.80;100.00
6500;BME280;3283;52.330;9.772;2023-03-20T06:30:35;56484.91;;;-143.80;100.00
6500;BME280;3283;52.330;9.772;2023-03-20T06:33:01;101020.09;;;10.85;100.00
6500;BME280;3283;52.330;9.772;2023-03-20T06:35:27;56484.91;;;-143.80;100.00
6500;BME280;3283;52.330;9.772;2023-03-20T06:37:55;101023.66;;;10.83;100.00
6500;BME280;3283;52.330;9.772;2023-03-20T06:40:21;101024.56;;;10.76;100.00
6500;BME280;3283;52.330;9.772;2023-03-20T06:42:46;56484.91;;;-143.80;100.00
6500;BME280;3283;52.330;9.772;2023-03-20T06:45:12;56484.91;;;-143.80;100.00
6500;BME280;3283;52.330;9.772;2023-03-20T06:47:38;56484.91;;;-143.80;100.00
6500;BME280;3283;52.330;9.772;2023-03-20T06:50:03;56484.91;;;-143.80;100.00
6500;BME280;3283;52.330;9.772;2023-03-20T06:52:29;56484.91;;;-143.80;100.00
6500;BME280;3283;52.330;9.772;2023-03-20T06:54:54;56484.91;;;-143.80;100.00
6500;BME280;3283;52.330;9.772;2023-03-20T06:57:20;56484.91;;;-143.80;100.00
6500;BME280;3283;52.330;9.772;2023-03-20T06:59:46;56484.91;;;-143.80;100.00
6500;BME280;3283;52.330;9.772;2023-03-20T07:02:12;56484.91;;;-143.80;100.00
6500;BME280;3283;52.330;9.772;2023-03-20T07:04:37;56484.91;;;-143.80;100.00
6500;BME280;3283;52.330;9.772;2023-03-20T07:07:03;56484.91;;;-143.80;100.00
6500;BME280;3283;52.330;9.772;2023-03-20T07:09:28;56484.91;;;-143.80;100.00
6500;BME280;3283;52.330;9.772;2023-03-20T07:11:54;56484.91;;;-143.80;100.00
6500;BME280;3283;52.330;9.772;2023-03-20T07:14:20;56484.91;;;-143.80;100.00
6500;BME280;3283;52.330;9.772;2023-03-20T07:16:45;56484.91;;;-143.80;100.00
6500;BME280;3283;52.330;9.772;2023-03-20T07:19:11;56484.91;;;-143.80;100.00
6500;BME280;3283;52.330;9.772;2023-03-20T07:21:37;56484.91;;;-143.80;100.00
6500;BME280;3283;52.330;9.772;2023-03-20T07:24:03;56484.91;;;-143.80;100.00
6500;BME280;3283;52.330;9.772;2023-03-20T07:26:30;56484.91;;;-143.80;100.00
6500;BME280;3283;52.330;9.772;2023-03-20T07:28:56;56484.91;;;-143.80;100.00
6500;BME280;3283;52.330;9.772;2023-03-20T07:31:24;56484.91;;;-143.80;100.00
6500;BME280;3283;52.330;9.772;2023-03-20T07:33:49;56484.91;;;-143.80;100.00
6500;BME280;3283;52.330;9.772;2023-03-20T07:36:15;56484.91;;;-143.80;100.00
6500;BME280;3283;52.330;9.772;2023-03-20T07:38:41;56484.91;;;-143.80;100.00
6500;BME280;3283;52.330;9.772;2023-03-20T07:41:06;56484.91;;;-143.80;100.00
6500;BME280;3283;52.330;9.772;2023-03-20T07:43:32;56484.91;;;-143.80;100.00
6500;BME280;3283;52.330;9.772;2023-03-20T07:46:01;56484.91;;;-143.80;100.00
6500;BME280;3283;52.330;9.772;2023-03-20T07:48:26;56484.91;;;-143.80;100.00
6500;BME280;3283;52.330;9.772;2023-03-20T07:50:51;56484.91;;;-143.80;100.00
6500;BME280;3283;52.330;9.772;2023-03-20T07:53:17;56484.91;;;-143.80;100.00
6500;BME280;3283;52.330;9.772;2023-03-20T07:55:42;56484.91;;;-143.80;100.00
6500;BME280;3283;52.330;9.772;2023-03-20T07:58:08;56484.91;;;-143.80;100.00
6500;BME280;3283;52.330;9.772;2023-03-20T08:00:33;56484.91;;;-143.80;100.00
6500;BME280;3283;52.330;9.772;2023-03-20T08:02:58;56484.91;;;-143.80;100.00
6500;BME280;3283;52.330;9.772;2023-03-20T08:05:24;56484.91;;;-143.80;100.00
6500;BME280;3283;52.330;9.772;2023-03-20T08:07:50;56484.91;;;-143.80;100.00
6500;BME280;3283;52.330;9.772;2023-03-20T08:10:15;56484.91;;;-143.80;100.00
6500;BME280;3283;52.330;9.772;2023-03-20T08:12:41;56484.91;;;-143.80;100.00
6500;BME280;3283;52.330;9.772;2023-03-20T08:15:07;56484.91;;;-143.80;100.00
6500;BME280;3283;52.330;9.772;2023-03-20T08:17:32;56484.91;;;-143.80;100.00
6500;BME280;3283;52.330;9.772;2023-03-20T08:19:58;56484.91;;;-143.80;100.00
6500;BME280;3283;52.330;9.772;2023-03-20T08:22:23;56484.91;;;-143.80;100.00
6500;BME280;3283;52.330;9.772;2023-03-20T08:24:49;56484.91;;;-143.80;100.00
6500;BME280;3283;52.330;9.772;2023-03-20T08:27:14;56484.91;;;-143.80;100.00
6500;BME280;3283;52.330;9.772;2023-03-20T08:29:39;56484.91;;;-143.80;100.00
6500;BME280;3283;52.330;9.772;2023-03-20T08:32:05;56484.91;;;-143.80;100.00
6500;BME280;3283;52.330;9.772;2023-03-20T08:34:31;56484.91;;;-143.80;100.00
6500;BME280;3283;52.330;9.772;2023-03-20T08:36:57;56484.91;;;-143.80;100.00
6500;BME280;3283;52.330;9.772;2023-03-20T08:39:23;56484.91;;;-143.80;100.00
6500;BME280;3283;52.330;9.772;2023-03-20T08:41:48;56484.91;;;-143.80;100.00
6500;BME280;3283;52.330;9.772;2023-03-20T08:44:13;56484.91;;;-143.80;100.00
6500;BME280;3283;52.330;9.772;2023-03-20T08:46:39;56484.91;;;-143.80;100.00
6500;BME280;3283;52.330;9.772;2023-03-20T08:49:04;56484.91;;;-143.80;100.00
6500;BME280;3283;52.330;9.772;2023-03-20T08:51:30;56484.91;;;-143.80;100.00
6500;BME280;3283;52.330;9.772;2023-03-20T08:53:56;56484.91;;;-143.80;100.00
6500;BME280;3283;52.330;9.772;2023-03-20T08:56:21;56484.91;;;-143.80;100.00
6500;BME280;3283;52.330;9.772;2023-03-20T08:58:47;56484.91;;;-143.80;100.00
6500;BME280;3283;52.330;9.772;2023-03-20T09:01:12;56484.91;;;-143.80;100.00
6500;BME280;3283;52.330;9.772;2023-03-20T09:03:40;56484.91;;;-143.80;100.00
6500;BME280;3283;52.330;9.772;2023-03-20T09:06:07;56484.91;;;-143.80;100.00
6500;BME280;3283;52.330;9.772;2023-03-20T09:08:33;56484.91;;;-143.80;100.00
6500;BME280;3283;52.330;9.772;2023-03-20T09:10:58;56484.91;;;-143.80;100.00
6500;BME280;3283;52.330;9.772;2023-03-20T09:13:24;56484.91;;;-143.80;100.00
6500;BME280;3283;52.330;9.772;2023-03-20T09:15:50;56484.91;;;-143.80;100.00
6500;BME280;3283;52.330;9.772;2023-03-20T09:18:17;56484.91;;;-143.80;100.00
6500;BME280;3283;52.330;9.772;2023-03-20T09:20:42;56484.91;;;-143.80;100.00
6500;BME280;3283;52.330;9.772;2023-03-20T09:23:08;56484.91;;;-143.80;100.00
6500;BME280;3283;52.330;9.772;2023-03-20T09:25:33;56484.91;;;-143.80;100.00
6500;BME280;3283;52.330;9.772;2023-03-20T09:27:59;56484.91;;;-143.80;100.00
6500;BME280;3283;52.330;9.772;2023-03-20T09:30:24;56484.91;;;-143.80;100.00
6500;BME280;3283;52.330;9.772;2023-03-20T09:32:50;56484.91;;;-143.80;100.00
6500;BME280;3283;52.330;9.772;2023-03-20T09:35:16;56484.91;;;-143.80;100.00
6500;BME280;3283;52.330;9.772;2023-03-20T09:37:42;56484.91;;;-143.80;100.00
6500;BME280;3283;52.330;9.772;2023-03-20T09:40:21;56484.91;;;-143.80;100.00
6500;BME280;3283;52.330;9.772;2023-03-20T09:43:02;56484.91;;;-143.80;100.00
6500;BME280;3283;52.330;9.772;2023-03-20T09:51:06;56484.91;;;-143.80;100.00
6500;BME280;3283;52.330;9.772;2023-03-20T09:56:46;56484.91;;;-143.80;100.00
6500;BME280;3283;52.330;9.772;2023-03-20T09:59:13;56484.91;;;-143.80;100.00
6500;BME280;3283;52.330;9.772;2023-03-20T10:01:55;56484.91;;;-143.80;100.00
6500;BME280;3283;52.330;9.772;2023-03-20T10:04:24;56484.91;;;-143.80;100.00
6500;BME280;3283;52.330;9.772;2023-03-20T10:06:50;56484.91;;;-143.80;100.00
6500;BME280;3283;52.330;9.772;2023-03-20T10:09:27;56484.91;;;-143.80;100.00
6500;BME280;3283;52.330;9.772;2023-03-20T10:12:08;56484.91;;;-143.80;100.00
6500;BME280;3283;52.330;9.772;2023-03-20T10:17:43;56484.91;;;-143.80;100.00
6500;BME280;3283;52.330;9.772;2023-03-20T10:23:25;56484.91;;;-143.80;100.00
6500;BME280;3283;52.330;9.772;2023-03-20T10:26:02;56484.91;;;-143.80;100.00
6500;BME280;3283;52.330;9.772;2023-03-20T10:28:40;56484.91;;;-143.80;100.00
6500;BME280;3283;52.330;9.772;2023-03-20T10:37:09;56484.91;;;-143.80;100.00
6500;BME280;3283;52.330;9.772;2023-03-20T10:40:02;56484.91;;;-143.80;100.00
6500;BME280;3283;52.330;9.772;2023-03-20T10:42:38;56484.91;;;-143.80;100.00
6500;BME280;3283;52.330;9.772;2023-03-20T10:45:21;56484.91;;;-143.80;100.00
6500;BME280;3283;52.330;9.772;2023-03-20T10:47:52;56484.91;;;-143.80;100.00
6500;BME280;3283;52.330;9.772;2023-03-20T10:50:23;56484.91;;;-143.80;100.00
6500;BME280;3283;52.330;9.772;2023-03-20T10:52:53;56484.91;;;-143.80;100.00
6500;BME280;3283;52.330;9.772;2023-03-20T10:55:23;56484.91;;;-143.80;100.00
6500;BME280;3283;52.330;9.772;2023-03-20T10:57:56;56484.91;;;-143.80;100.00
6500;BME280;3283;52.330;9.772;2023-03-20T11:00:25;56484.91;;;-143.80;100.00
6500;BME280;3283;52.330;9.772;2023-03-20T11:02:51;56484.91;;;-143.80;100.00
6500;BME280;3283;52.330;9.772;2023-03-20T11:05:24;56484.91;;;-143.80;100.00
6500;BME280;3283;52.330;9.772;2023-03-20T11:08:06;56484.91;;;-143.80;100.00
6500;BME280;3283;52.330;9.772;2023-03-20T11:10:35;56484.91;;;-143.80;100.00
6500;BME280;3283;52.330;9.772;2023-03-20T11:15:39;56484.91;;;-143.80;100.00
6500;BME280;3283;52.330;9.772;2023-03-20T11:18:06;56484.91;;;-143.80;100.00
6500;BME280;3283;52.330;9.772;2023-03-20T11:23:14;56484.91;;;-143.80;100.00
6500;BME280;3283;52.330;9.772;2023-03-20T11:25:51;56484.91;;;-143.80;100.00
6500;BME280;3283;52.330;9.772;2023-03-20T11:28:26;56484.91;;;-143.80;100.00
6500;BME280;3283;52.330;9.772;2023-03-20T11:33:42;56484.91;;;-143.80;100.00
6500;BME280;3283;52.330;9.772;2023-03-20T11:36:26;56484.91;;;-143.80;100.00
6500;BME280;3283;52.330;9.772;2023-03-20T11:39:05;56484.91;;;-143.80;100.00
6500;BME280;3283;52.330;9.772;2023-03-20T11:41:31;56484.91;;;-143.80;100.00
6500;BME280;3283;52.330;9.772;2023-03-20T11:43:57;56484.91;;;-143.80;100.00
6500;BME280;3283;52.330;9.772;2023-03-20T11:46:23;56484.91;;;-143.80;100.00
6500;BME280;3283;52.330;9.772;2023-03-20T11:49:04;56484.91;;;-143.80;100.00
6500;BME280;3283;52.330;9.772;2023-03-20T11:51:31;56484.91;;;-143.80;100.00
6500;BME280;3283;52.330;9.772;2023-03-20T11:54:01;56484.91;;;-143.80;100.00
6500;BME280;3283;52.330;9.772;2023-03-20T11:56:29;56484.91;;;-143.80;100.00
6500;BME280;3283;52.330;9.772;2023-03-20T11:58:57;56484.91;;;-143.80;100.00
6500;BME280;3283;52.330;9.772;2023-03-20T12:01:25;56484.91;;;-143.80;100.00
6500;BME280;3283;52.330;9.772;2023-03-20T12:09:36;56484.91;;;-143.80;100.00
6500;BME280;3283;52.330;9.772;2023-03-20T12:14:46;56484.91;;;-143.80;100.00
6500;BME280;3283;52.330;9.772;2023-03-20T12:19:44;56484.91;;;-143.80;100.00
6500;BME280;3283;52.330;9.772;2023-03-20T12:22:24;56484.91;;;-143.80;100.00
6500;BME280;3283;52.330;9.772;2023-03-20T12:25:03;56484.91;;;-143.80;100.00
6500;BME280;3283;52.330;9.772;2023-03-20T12:27:36;56484.91;;;-143.80;100.00
6500;BME280;3283;52.330;9.772;2023-03-20T12:30:09;56484.91;;;-143.80;100.00
6500;BME280;3283;52.330;9.772;2023-03-20T12:33:33;56484.91;;;-143.80;100.00
6500;BME280;3283;52.330;9.772;2023-03-20T12:35:44;56484.91;;;-143.80;100.00
6500;BME280;3283;52.330;9.772;2023-03-20T12:38:26;56484.91;;;-143.80;100.00
6500;BME280;3283;52.330;9.772;2023-03-20T12:40:56;56484.91;;;-143.80;100.00
6500;BME280;3283;52.330;9.772;2023-03-20T12:43:29;56484.91;;;-143.80;100.00
6500;BME280;3283;52.330;9.772;2023-03-20T12:46:24;56484.91;;;-143.80;100.00
6500;BME280;3283;52.330;9.772;2023-03-20T17:24:51;100965.53;;;9.61;78.43
6500;BME280;3283;52.330;9.772;2023-03-20T17:27:18;100966.38;;;9.73;78.26
6500;BME280;3283;52.330;9.772;2023-03-20T17:29:45;100965.44;;;9.84;77.89
6500;BME280;3283;52.330;9.772;2023-03-20T17:32:14;100974.22;;;9.83;77.92
6500;BME280;3283;52.330;9.772;2023-03-20T17:34:40;100980.34;;;9.79;77.55
6500;BME280;3283;52.330;9.772;2023-03-20T17:37:10;100975.97;;;9.81;77.90
6500;BME280;3283;52.330;9.772;2023-03-20T17:39:37;100980.34;;;9.84;77.82
6500;BME280;3283;52.330;9.772;2023-03-20T17:42:02;100985.59;;;9.87;77.29
6500;BME280;3283;52.330;9.772;2023-03-20T17:44:28;100976.84;;;9.83;77.64
6500;BME280;3283;52.330;9.772;2023-03-20T17:46:53;100980.28;;;9.93;77.89
6500;BME280;3283;52.330;9.772;2023-03-20T17:49:19;100976.78;;;9.93;77.42
6500;BME280;3283;52.330;9.772;2023-03-20T17:51:47;100974.19;;;9.88;77.58
6500;BME280;3283;52.330;9.772;2023-03-20T17:54:12;100983.75;;;10.00;77.56
6500;BME280;3283;52.330;9.772;2023-03-20T17:56:38;100981.19;;;9.92;78.03
6500;BME280;3283;52.330;9.772;2023-03-20T17:59:11;100982.94;;;9.91;77.40
6500;BME280;3283;52.330;9.772;2023-03-20T18:01:37;100980.31;;;9.85;77.89
6500;BME280;3283;52.330;9.772;2023-03-20T18:04:03;100981.22;;;9.83;77.96
6500;BME280;3283;52.330;9.772;2023-03-20T18:06:30;100975.97;;;9.78;78.56
